createdAt,value
2019-03-29T00:00:46.310Z,13.80
2019-03-29T00:03:15.990Z,14.65
2019-03-29T00:05:45.424Z,14.97
2019-03-29T00:08:14.925Z,14.60
2019-03-29T00:10:44.400Z,14.17
2019-03-29T00:13:14.783Z,13.98
2019-03-29T00:15:44.492Z,14.03
2019-03-29T00:18:13.938Z,14.60
2019-03-29T00:20:43.430Z,14.40
2019-03-29T00:23:12.885Z,15.32
2019-03-29T00:25:42.333Z,15.03
2019-03-29T00:28:11.842Z,14.30
2019-03-29T00:30:41.395Z,15.80
2019-03-29T00:33:10.974Z,14.60
2019-03-29T00:35:40.424Z,15.20
2019-03-29T00:38:09.911Z,15.70
2019-03-29T00:40:39.365Z,15.70
2019-03-29T00:43:09.077Z,14.66
2019-03-29T00:45:38.838Z,15.32
2019-03-29T00:48:08.406Z,15.30
2019-03-29T00:50:37.916Z,15.30
2019-03-29T00:53:07.545Z,15.80
2019-03-29T00:55:37.847Z,15.60
2019-03-29T00:58:07.332Z,14.98
2019-03-29T01:00:37.124Z,15.50
2019-03-29T01:03:06.613Z,16.15
2019-03-29T01:05:36.161Z,15.50
2019-03-29T01:08:08.114Z,16.60
2019-03-29T01:10:36.881Z,16.20
2019-03-29T01:13:06.380Z,15.30
2019-03-29T01:15:35.981Z,16.17
2019-03-29T01:18:06.811Z,17.37
2019-03-29T01:20:36.425Z,16.75
2019-03-29T01:23:06.006Z,16.45
2019-03-29T01:25:35.727Z,17.60
2019-03-29T01:28:05.215Z,17.10
2019-03-29T01:30:34.680Z,16.17
2019-03-29T01:33:04.453Z,16.67
2019-03-29T01:35:33.916Z,16.42
2019-03-29T01:38:04.677Z,16.85
2019-03-29T01:40:35.004Z,16.65
2019-03-29T01:43:04.652Z,17.40
2019-03-29T01:45:34.655Z,17.60
2019-03-29T01:48:04.528Z,18.15
2019-03-29T01:50:35.010Z,19.57
2019-03-29T01:53:04.603Z,21.33
2019-03-29T01:55:34.222Z,19.73
2019-03-29T01:58:03.682Z,20.92
2019-03-29T02:00:36.099Z,20.97
2019-03-29T02:03:05.972Z,21.07
2019-03-29T02:05:35.437Z,21.20
2019-03-29T02:08:05.918Z,20.85
2019-03-29T02:10:35.478Z,21.30
2019-03-29T02:13:05.125Z,20.92
2019-03-29T02:15:34.693Z,21.42
2019-03-29T02:18:04.590Z,21.33
2019-03-29T02:20:35.250Z,22.13
2019-03-29T02:23:04.693Z,21.00
2019-03-29T02:25:34.167Z,22.27
2019-03-29T02:28:04.483Z,21.70
2019-03-29T02:30:34.016Z,22.60
2019-03-29T02:33:04.356Z,22.25
2019-03-29T02:35:33.824Z,22.20
2019-03-29T02:38:03.331Z,21.97
2019-03-29T02:40:32.777Z,22.48
2019-03-29T02:43:02.247Z,22.05
2019-03-29T02:45:31.714Z,22.30
2019-03-29T02:48:01.162Z,22.87
2019-03-29T02:50:30.685Z,23.20
2019-03-29T02:53:00.118Z,22.58
2019-03-29T02:55:29.597Z,22.75
2019-03-29T02:57:59.123Z,22.00
2019-03-29T03:00:28.607Z,22.15
2019-03-29T03:02:58.048Z,23.47
2019-03-29T03:05:27.519Z,23.60
2019-03-29T03:07:56.973Z,23.95
2019-03-29T03:10:26.442Z,22.58
2019-03-29T03:12:55.929Z,22.30
2019-03-29T03:15:25.432Z,24.23
2019-03-29T03:17:54.919Z,24.10
2019-03-29T03:20:24.430Z,23.43
2019-03-29T03:22:53.861Z,22.98
2019-03-29T03:25:23.359Z,23.25
2019-03-29T03:27:53.318Z,24.23
2019-03-29T03:30:22.900Z,23.57
2019-03-29T03:32:52.395Z,23.38
2019-03-29T03:35:21.893Z,25.15
2019-03-29T03:37:52.258Z,24.10
2019-03-29T03:40:21.738Z,25.27
2019-03-29T03:42:51.282Z,25.50
2019-03-29T03:45:20.743Z,24.77
2019-03-29T03:47:50.349Z,25.10
2019-03-29T03:50:28.209Z,24.23
2019-03-29T03:52:57.773Z,24.45
2019-03-29T03:55:27.885Z,23.25
2019-03-29T03:57:58.093Z,22.60
2019-03-29T04:00:30.766Z,23.32
2019-03-29T04:03:00.313Z,23.73
2019-03-29T04:05:29.809Z,23.50
2019-03-29T04:07:59.311Z,24.52
2019-03-29T04:10:28.808Z,23.07
2019-03-29T04:12:58.334Z,22.70
2019-03-29T04:15:27.821Z,22.10
2019-03-29T04:17:57.294Z,22.67
2019-03-29T04:20:26.940Z,22.00
2019-03-29T04:22:56.413Z,20.37
2019-03-29T04:25:25.864Z,20.95
2019-03-29T04:27:55.341Z,20.52
2019-03-29T04:30:24.786Z,20.23
2019-03-29T04:32:54.272Z,20.37
2019-03-29T04:35:23.710Z,20.95
2019-03-29T04:37:53.185Z,20.92
2019-03-29T04:40:23.701Z,20.32
2019-03-29T04:42:53.258Z,20.05
2019-03-29T04:45:22.693Z,21.55
2019-03-29T04:47:52.189Z,20.65
2019-03-29T04:50:21.630Z,21.80
2019-03-29T04:52:51.125Z,21.68
2019-03-29T04:55:20.579Z,21.10
2019-03-29T04:57:50.163Z,20.25
2019-03-29T05:00:19.713Z,22.85
2019-03-29T05:02:49.351Z,22.32
2019-03-29T05:05:18.792Z,22.55
2019-03-29T05:07:48.335Z,23.05
2019-03-29T05:10:21.615Z,24.10
2019-03-29T05:12:48.985Z,29.72
2019-03-29T05:15:18.460Z,26.90
2019-03-29T05:17:47.913Z,26.97
2019-03-29T05:20:17.415Z,28.02
2019-03-29T05:22:47.133Z,27.82
2019-03-29T05:25:16.634Z,28.00
2019-03-29T05:27:46.145Z,28.45
2019-03-29T05:30:15.860Z,30.45
2019-03-29T05:32:45.315Z,29.50
2019-03-29T05:35:15.985Z,28.90
2019-03-29T05:37:45.458Z,29.52
2019-03-29T05:40:15.065Z,29.03
2019-03-29T05:42:44.551Z,29.65
2019-03-29T05:45:14.103Z,28.92
2019-03-29T05:47:43.556Z,28.67
2019-03-29T05:50:13.486Z,28.77
2019-03-29T05:52:42.937Z,27.40
2019-03-29T05:55:12.701Z,27.80
2019-03-29T05:57:42.179Z,27.77
2019-03-29T06:00:13.984Z,28.20
2019-03-29T06:02:43.455Z,28.95
2019-03-29T06:05:12.912Z,27.42
2019-03-29T06:07:42.725Z,28.77
2019-03-29T06:10:12.639Z,28.77
2019-03-29T06:12:42.138Z,28.73
2019-03-29T06:15:11.939Z,29.70
2019-03-29T06:17:48.512Z,29.67
2019-03-29T06:20:13.406Z,30.52
2019-03-29T06:22:42.861Z,29.80
2019-03-29T06:25:12.700Z,30.55
2019-03-29T06:27:42.144Z,30.43
2019-03-29T06:30:11.683Z,31.17
2019-03-29T06:32:41.191Z,31.62
2019-03-29T06:35:10.768Z,32.40
2019-03-29T06:37:43.351Z,31.90
2019-03-29T06:40:15.883Z,33.42
2019-03-29T06:42:45.329Z,33.55
2019-03-29T06:45:14.859Z,32.33
2019-03-29T06:47:44.331Z,32.20
2019-03-29T06:50:14.246Z,32.10
2019-03-29T06:52:43.957Z,31.60
2019-03-29T06:55:13.487Z,31.23
2019-03-29T06:57:43.026Z,31.45
2019-03-29T07:00:12.902Z,31.60
2019-03-29T07:02:42.381Z,31.02
2019-03-29T07:05:12.425Z,32.80
2019-03-29T07:07:44.555Z,32.27
2019-03-29T07:10:13.129Z,31.77
2019-03-29T07:12:42.622Z,31.65
2019-03-29T07:15:12.233Z,30.72
2019-03-29T07:17:41.732Z,34.03
2019-03-29T07:20:11.871Z,30.85
2019-03-29T07:22:41.366Z,29.80
2019-03-29T07:25:10.967Z,30.57
2019-03-29T07:27:46.795Z,29.12
2019-03-29T07:30:12.161Z,29.47
2019-03-29T07:32:42.661Z,27.42
2019-03-29T07:35:12.270Z,27.65
2019-03-29T07:37:41.739Z,27.87
2019-03-29T07:40:11.482Z,28.47
2019-03-29T07:42:42.009Z,27.27
2019-03-29T07:45:11.666Z,27.80
2019-03-29T07:47:41.332Z,26.95
2019-03-29T07:50:11.017Z,26.80
2019-03-29T07:52:40.573Z,24.90
2019-03-29T07:55:10.237Z,25.37
2019-03-29T07:57:39.679Z,24.15
2019-03-29T08:00:09.700Z,24.28
2019-03-29T08:02:39.287Z,24.43
2019-03-29T08:05:09.028Z,24.68
2019-03-29T08:07:38.481Z,25.50
2019-03-29T08:10:08.121Z,25.40
2019-03-29T08:12:40.399Z,26.00
2019-03-29T08:15:09.946Z,25.66
2019-03-29T08:17:40.805Z,26.37
2019-03-29T08:20:37.465Z,25.57
2019-03-29T08:22:41.772Z,25.37
2019-03-29T08:25:11.359Z,24.53
2019-03-29T08:27:41.006Z,25.12
2019-03-29T08:30:10.506Z,26.20
2019-03-29T08:32:39.986Z,25.85
2019-03-29T08:35:09.609Z,24.27
2019-03-29T08:37:39.197Z,24.82
2019-03-29T08:40:08.946Z,26.50
2019-03-29T08:42:38.384Z,27.23
2019-03-29T08:45:08.016Z,27.10
2019-03-29T08:47:37.456Z,25.80
2019-03-29T08:50:07.783Z,26.17
2019-03-29T08:52:37.221Z,25.23
2019-03-29T08:55:07.581Z,25.92
2019-03-29T08:57:37.081Z,25.57
2019-03-29T09:00:09.804Z,25.55
2019-03-29T09:02:39.317Z,23.63
2019-03-29T09:05:09.341Z,24.26
2019-03-29T09:07:45.017Z,25.95
2019-03-29T09:10:24.078Z,21.97
2019-03-29T09:12:53.842Z,21.07
2019-03-29T09:15:23.416Z,17.23
2019-03-29T09:17:52.898Z,13.95
2019-03-29T09:20:22.363Z,15.08
2019-03-29T09:22:51.831Z,12.75
2019-03-29T09:25:21.418Z,12.90
2019-03-29T09:27:51.093Z,13.90
2019-03-29T09:30:20.638Z,14.10
2019-03-29T09:32:51.782Z,11.12
2019-03-29T09:35:21.449Z,13.90
2019-03-29T09:37:50.952Z,14.55
2019-03-29T09:40:20.487Z,14.67
2019-03-29T09:42:55.710Z,14.50
2019-03-29T09:45:21.340Z,18.45
2019-03-29T09:47:51.894Z,13.90
2019-03-29T09:50:23.160Z,13.07
2019-03-29T09:52:53.257Z,13.48
2019-03-29T09:55:22.710Z,13.05
2019-03-29T09:57:52.190Z,13.80
2019-03-29T10:00:23.434Z,12.90
2019-03-29T10:02:52.947Z,13.62
2019-03-29T10:05:22.434Z,12.57
2019-03-29T10:07:52.036Z,12.50
2019-03-29T10:10:21.499Z,13.20
2019-03-29T10:12:50.982Z,12.40
2019-03-29T10:15:20.448Z,12.07
2019-03-29T10:17:49.896Z,13.58
2019-03-29T10:20:19.439Z,13.73
2019-03-29T10:22:48.879Z,13.98
2019-03-29T10:25:20.217Z,16.30
2019-03-29T10:27:49.608Z,15.50
2019-03-29T10:30:34.002Z,14.75
2019-03-29T10:33:04.727Z,13.53
2019-03-29T10:35:34.267Z,14.40
2019-03-29T10:38:03.891Z,15.00
2019-03-29T10:40:33.809Z,15.05
2019-03-29T10:43:03.361Z,15.38
2019-03-29T10:45:38.026Z,16.57
2019-03-29T10:48:04.644Z,15.90
2019-03-29T10:50:34.226Z,16.50
2019-03-29T10:53:04.480Z,15.40
2019-03-29T10:55:34.010Z,15.25
2019-03-29T10:58:04.511Z,14.92
2019-03-29T11:00:35.925Z,14.40
2019-03-29T11:03:05.849Z,15.98
2019-03-29T11:05:35.469Z,15.60
2019-03-29T11:08:05.417Z,16.48
2019-03-29T11:10:37.252Z,15.78
2019-03-29T11:13:13.031Z,15.90
2019-03-29T11:15:38.185Z,15.50
2019-03-29T11:18:08.034Z,15.83
2019-03-29T11:20:37.563Z,16.05
2019-03-29T11:23:07.063Z,16.17
2019-03-29T11:25:36.496Z,16.30
2019-03-29T11:28:06.240Z,16.80
2019-03-29T11:30:41.934Z,17.25
2019-03-29T11:33:07.062Z,17.27
2019-03-29T11:35:36.679Z,16.12
2019-03-29T11:38:06.205Z,14.83
2019-03-29T11:40:35.915Z,15.93
2019-03-29T11:43:05.529Z,15.75
2019-03-29T11:45:35.454Z,15.75
2019-03-29T11:48:08.893Z,16.02
2019-03-29T11:50:36.704Z,15.90
2019-03-29T11:53:06.573Z,15.58
2019-03-29T11:55:36.168Z,15.72
2019-03-29T11:58:05.674Z,15.63
2019-03-29T12:00:36.812Z,15.68
2019-03-29T12:03:09.111Z,15.93
2019-03-29T12:05:37.886Z,15.83
2019-03-29T12:08:07.635Z,15.28
2019-03-29T12:10:37.323Z,15.40
2019-03-29T12:13:08.244Z,14.83
2019-03-29T12:15:38.749Z,14.25
2019-03-29T12:18:08.408Z,15.60
2019-03-29T12:20:37.906Z,14.25
2019-03-29T12:23:07.524Z,14.73
2019-03-29T12:25:36.998Z,13.08
2019-03-29T12:28:07.334Z,14.45
2019-03-29T12:30:36.839Z,13.35
2019-03-29T12:33:06.314Z,13.88
2019-03-29T12:35:35.951Z,14.45
2019-03-29T12:38:05.475Z,13.13
2019-03-29T12:40:35.058Z,13.05
2019-03-29T12:43:04.627Z,12.80
2019-03-29T12:45:34.291Z,12.98
2019-03-29T12:48:04.585Z,13.60
2019-03-29T12:50:34.053Z,13.30
2019-03-29T12:53:04.612Z,13.65
2019-03-29T12:55:34.076Z,14.38
2019-03-29T12:58:04.680Z,13.20
2019-03-29T13:00:34.267Z,13.20
2019-03-29T13:03:04.590Z,13.50
2019-03-29T13:05:34.055Z,13.22
2019-03-29T13:08:04.633Z,13.85
2019-03-29T13:10:34.088Z,13.05
2019-03-29T13:13:04.658Z,12.90
2019-03-29T13:15:34.134Z,13.55
2019-03-29T13:18:04.632Z,12.93
2019-03-29T13:20:34.218Z,13.72
2019-03-29T13:23:04.626Z,13.44
2019-03-29T13:25:34.442Z,13.28
2019-03-29T13:28:04.490Z,13.62
2019-03-29T13:30:34.043Z,13.10
2019-03-29T13:33:04.626Z,13.78
2019-03-29T13:35:34.150Z,13.60
2019-03-29T13:38:20.307Z,12.95
2019-03-29T13:40:48.119Z,13.90
2019-03-29T13:43:17.593Z,13.38
2019-03-29T13:45:47.060Z,13.58
2019-03-29T13:48:16.767Z,13.13
2019-03-29T13:50:46.495Z,13.50
2019-03-29T13:53:16.113Z,11.90
2019-03-29T13:55:45.680Z,12.98
2019-03-29T13:58:15.260Z,12.85
2019-03-29T14:00:44.733Z,13.35
2019-03-29T14:03:14.364Z,14.03
2019-03-29T14:05:43.884Z,14.05
2019-03-29T14:08:13.391Z,14.43
2019-03-29T14:10:43.316Z,13.48
2019-03-29T14:13:13.058Z,13.53
2019-03-29T14:15:42.716Z,13.00
2019-03-29T14:18:12.361Z,13.60
2019-03-29T14:20:41.828Z,13.35
2019-03-29T14:23:11.431Z,13.40
2019-03-29T14:25:40.911Z,13.40
2019-03-29T14:28:10.359Z,13.40
2019-03-29T14:30:39.846Z,12.43
2019-03-29T14:33:09.303Z,13.32
2019-03-29T14:35:38.774Z,12.93
2019-03-29T14:38:08.249Z,12.85
2019-03-29T14:40:37.726Z,12.18
2019-03-29T14:43:07.202Z,12.75
2019-03-29T14:45:36.840Z,12.93
2019-03-29T14:48:06.322Z,12.53
2019-03-29T14:50:35.839Z,13.58
2019-03-29T14:53:06.220Z,12.90
2019-03-29T14:55:35.730Z,12.33
2019-03-29T14:58:05.226Z,12.65
2019-03-29T15:00:37.091Z,13.43
2019-03-29T15:03:06.599Z,12.05
2019-03-29T15:05:36.463Z,12.43
2019-03-29T15:08:07.387Z,12.05
2019-03-29T15:10:37.024Z,12.73
2019-03-29T15:13:06.719Z,12.40
2019-03-29T15:15:36.305Z,13.30
2019-03-29T15:18:06.565Z,12.25
2019-03-29T15:20:36.115Z,11.95
2019-03-29T15:23:05.609Z,12.25
2019-03-29T15:25:35.155Z,12.10
2019-03-29T15:28:04.664Z,12.33
2019-03-29T15:30:34.128Z,11.30
2019-03-29T15:33:04.495Z,11.93
2019-03-29T15:35:34.022Z,12.40
2019-03-29T15:38:05.991Z,12.00
2019-03-29T15:40:36.062Z,11.95
2019-03-29T15:43:05.574Z,11.97
2019-03-29T15:45:35.133Z,11.30
2019-03-29T15:48:04.694Z,12.58
2019-03-29T15:50:34.210Z,11.70
2019-03-29T15:53:04.620Z,12.10
2019-03-29T15:55:34.120Z,12.15
2019-03-29T15:58:04.653Z,11.30
2019-03-29T16:00:34.120Z,11.68
2019-03-29T16:03:04.645Z,11.73
2019-03-29T16:05:35.305Z,12.07
2019-03-29T16:08:04.772Z,11.08
2019-03-29T16:10:34.435Z,11.40
2019-03-29T16:13:04.583Z,11.63
2019-03-29T16:15:38.067Z,11.73
2019-03-29T16:18:05.730Z,11.25
2019-03-29T16:20:36.207Z,12.37
2019-03-29T16:23:07.541Z,11.33
2019-03-29T16:25:38.282Z,12.70
2019-03-29T16:28:08.242Z,11.60
2019-03-29T16:30:37.755Z,10.68
2019-03-29T16:33:08.517Z,13.40
2019-03-29T16:35:37.981Z,12.28
2019-03-29T16:38:07.410Z,13.28
2019-03-29T16:40:36.887Z,13.28
2019-03-29T16:43:06.364Z,12.25
2019-03-29T16:45:47.305Z,13.72
2019-03-29T16:48:07.217Z,12.58
2019-03-29T16:50:36.903Z,13.00
2019-03-29T16:53:06.554Z,12.93
2019-03-29T16:55:36.368Z,12.37
2019-03-29T16:58:06.652Z,14.50
2019-03-29T17:00:37.103Z,12.60
2019-03-29T17:03:06.730Z,12.82
2019-03-29T17:05:36.179Z,12.88
2019-03-29T17:08:06.265Z,12.53
2019-03-29T17:10:35.932Z,12.98
2019-03-29T17:13:06.711Z,13.28
2019-03-29T17:15:36.223Z,13.93
2019-03-29T17:18:05.965Z,12.90
2019-03-29T17:20:35.736Z,14.63
2019-03-29T17:23:06.013Z,13.65
2019-03-29T17:25:35.646Z,15.38
2019-03-29T17:28:05.469Z,13.10
2019-03-29T17:30:38.252Z,13.03
2019-03-29T17:33:07.782Z,12.75
2019-03-29T17:35:39.114Z,13.83
2019-03-29T17:38:08.959Z,14.04
2019-03-29T17:40:38.430Z,13.65
2019-03-29T17:43:07.872Z,13.08
2019-03-29T17:45:37.371Z,12.90
2019-03-29T17:48:07.100Z,14.10
2019-03-29T17:50:36.617Z,13.35
2019-03-29T17:53:06.092Z,13.53
2019-03-29T17:55:35.902Z,13.55
2019-03-29T17:58:05.455Z,13.22
2019-03-29T18:00:35.083Z,13.70
2019-03-29T18:03:05.173Z,13.83
2019-03-29T18:05:34.751Z,13.08
2019-03-29T18:08:04.589Z,13.26
2019-03-29T18:10:34.159Z,12.75
2019-03-29T18:13:04.522Z,13.30
2019-03-29T18:15:34.058Z,12.93
2019-03-29T18:18:04.575Z,13.98
2019-03-29T18:20:34.229Z,12.93
2019-03-29T18:23:04.578Z,13.93
2019-03-29T18:25:34.442Z,13.18
2019-03-29T18:28:04.759Z,13.16
2019-03-29T18:30:37.027Z,13.32
2019-03-29T18:33:08.072Z,13.40
2019-03-29T18:35:38.911Z,13.38
2019-03-29T18:38:12.241Z,14.27
2019-03-29T18:40:41.695Z,13.10
2019-03-29T18:43:12.362Z,13.83
2019-03-29T18:45:42.034Z,12.88
2019-03-29T18:48:11.611Z,13.78
2019-03-29T18:50:41.271Z,12.82
2019-03-29T18:53:11.103Z,12.70
2019-03-29T18:55:40.583Z,12.33
2019-03-29T18:58:10.408Z,12.88
2019-03-29T19:00:39.946Z,12.55
2019-03-29T19:03:11.890Z,11.55
2019-03-29T19:05:40.733Z,11.12
2019-03-29T19:08:11.813Z,11.65
2019-03-29T19:10:41.271Z,11.53
2019-03-29T19:13:10.713Z,11.22
2019-03-29T19:15:40.406Z,12.07
2019-03-29T19:18:10.000Z,11.15
2019-03-29T19:20:39.564Z,11.10
2019-03-29T19:23:09.062Z,11.68
2019-03-29T19:25:38.529Z,12.45
2019-03-29T19:28:08.059Z,12.10
2019-03-29T19:30:38.765Z,11.38
2019-03-29T19:33:08.282Z,11.15
2019-03-29T19:35:38.504Z,12.13
2019-03-29T19:38:08.068Z,12.98
2019-03-29T19:40:37.700Z,14.00
2019-03-29T19:43:07.316Z,13.98
2019-03-29T19:45:36.975Z,13.68
2019-03-29T19:48:06.662Z,14.63
2019-03-29T19:50:36.295Z,15.15
2019-03-29T19:53:05.812Z,15.53
2019-03-29T19:55:35.708Z,16.47
2019-03-29T19:58:05.256Z,16.60
2019-03-29T20:00:40.222Z,17.37
2019-03-29T20:03:10.175Z,19.02
2019-03-29T20:05:39.725Z,17.35
2019-03-29T20:08:09.321Z,17.77
2019-03-29T20:10:43.090Z,18.75
2019-03-29T20:13:15.443Z,18.50
2019-03-29T20:15:44.925Z,18.55
2019-03-29T20:18:14.399Z,18.77
2019-03-29T20:20:44.206Z,18.77
2019-03-29T20:23:13.652Z,19.43
2019-03-29T20:25:43.164Z,18.70
2019-03-29T20:28:12.607Z,19.15
2019-03-29T20:30:42.646Z,18.87
2019-03-29T20:33:13.487Z,20.40
2019-03-29T20:35:43.406Z,21.37
2019-03-29T20:38:12.891Z,22.30
2019-03-29T20:40:42.805Z,21.62
2019-03-29T20:43:12.445Z,20.75
2019-03-29T20:45:42.178Z,20.97
2019-03-29T20:48:11.840Z,22.22
2019-03-29T20:50:41.304Z,23.00
2019-03-29T20:53:10.763Z,22.17
2019-03-29T20:55:40.468Z,23.65
2019-03-29T20:58:10.896Z,24.10
2019-03-29T21:00:40.410Z,24.37
2019-03-29T21:03:09.865Z,25.37
2019-03-29T21:05:39.323Z,25.05
2019-03-29T21:08:08.802Z,24.70
2019-03-29T21:10:38.251Z,26.00
2019-03-29T21:13:07.711Z,25.05
2019-03-29T21:15:37.151Z,26.73
2019-03-29T21:18:07.829Z,27.02
2019-03-29T21:20:37.309Z,27.00
2019-03-29T21:23:07.164Z,26.75
2019-03-29T21:25:36.601Z,27.17
2019-03-29T21:28:06.051Z,27.80
2019-03-29T21:30:35.656Z,27.45
2019-03-29T21:33:05.136Z,27.98
2019-03-29T21:35:34.807Z,28.77
2019-03-29T21:38:04.457Z,28.15
2019-03-29T21:40:34.021Z,28.27
2019-03-29T21:43:07.458Z,28.55
2019-03-29T21:45:37.057Z,27.82
2019-03-29T21:48:27.338Z,29.80
2019-03-29T21:50:38.804Z,28.60
2019-03-29T21:53:08.289Z,30.00
2019-03-29T21:55:37.726Z,29.63
2019-03-29T21:58:08.060Z,30.27
2019-03-29T22:00:37.722Z,30.27
2019-03-29T22:03:07.424Z,29.65
2019-03-29T22:05:37.318Z,31.35
2019-03-29T22:08:07.102Z,31.73
2019-03-29T22:10:36.770Z,31.93
2019-03-29T22:13:06.253Z,31.95
2019-03-29T22:15:35.778Z,30.77
2019-03-29T22:18:07.009Z,32.33
2019-03-29T22:20:37.418Z,32.43
2019-03-29T22:23:06.923Z,33.60
2019-03-29T22:25:36.575Z,33.50
2019-03-29T22:28:06.158Z,34.50
2019-03-29T22:30:36.608Z,32.25
2019-03-29T22:33:06.342Z,33.13
2019-03-29T22:35:35.781Z,34.13
2019-03-29T22:38:05.389Z,33.17
2019-03-29T22:40:34.883Z,33.75
2019-03-29T22:43:07.287Z,33.17
2019-03-29T22:45:35.564Z,33.08
2019-03-29T22:48:05.159Z,32.93
2019-03-29T22:50:34.985Z,32.42
2019-03-29T22:53:04.575Z,33.98
2019-03-29T22:55:34.139Z,33.30
2019-03-29T22:58:04.426Z,32.63
2019-03-29T23:00:41.587Z,32.83
2019-03-29T23:03:12.654Z,32.30
2019-03-29T23:05:42.115Z,31.68
2019-03-29T23:08:11.631Z,30.20
2019-03-29T23:10:41.106Z,31.17
2019-03-29T23:13:10.564Z,31.85
2019-03-29T23:15:40.042Z,32.35
2019-03-29T23:18:10.925Z,31.57
2019-03-29T23:20:40.489Z,31.62
2019-03-29T23:23:10.082Z,31.95
2019-03-29T23:25:39.559Z,32.00
2019-03-29T23:28:09.034Z,31.16
2019-03-29T23:30:38.705Z,31.23
2019-03-29T23:33:08.189Z,30.35
2019-03-29T23:35:37.789Z,31.27
2019-03-29T23:38:07.519Z,31.17
2019-03-29T23:40:36.996Z,31.60
2019-03-29T23:43:06.437Z,30.65
2019-03-29T23:45:35.882Z,29.98
2019-03-29T23:48:05.429Z,30.43
2019-03-29T23:50:34.933Z,30.12
2019-03-29T23:53:04.498Z,30.03
2019-03-29T23:55:34.441Z,30.40
2019-03-29T23:58:04.550Z,28.83
